Rico, CO (81332)

8:41 AM MST on December 25, 2014 (GMT -0700)
Dunton | Change Station
CLOSE
Current Station
Personal Weather Station
Location: Dolores, CO
Elevation: 8862 ft
Nearby Weather Stations
Active Advisory: Winter Weather Advisory

Elev 8862 ft 37.77 °N, 108.09 °W | Updated 14 minutes ago

Snow
Snow
24.9 °F
Feels Like 25 °F
N
0.0
Wind Variable Wind from SSE
Gusts 8.0 mph

Today
High -- | Low -- °F
--% Chance of Precip.
Yesterday
High -- | Low -- °F
Precip. -- in
7:25 AM 4:59 PM
Waxing Crescent, 17% visible
Pressure 29.54 in
Visibility 5.0 miles
Clouds Scattered Clouds 3500 ft
Mostly Cloudy 4200 ft
Overcast 9000 ft
Windchill 25 °F
Dew Point 21 °F
Humidity 86%
Rainfall 0.00 in
Snow Depth Not available.
UV 0 out of 12
Pollen .40 out of 12
Air Quality Not available.
Flu Activity Not available.
METAR KTEX 251535Z AUTO 16011G14KT 5SM -SN SCT035 BKN042 OVC090 M03/M07 A2954 RMK AO2 T10261068

More Conditions Fewer Conditions

Pressure 29.54 in
Visibility 5.0 miles
Clouds Scattered Clouds 3500 ft
Mostly Cloudy 4200 ft
Overcast 9000 ft
Windchill 25 °F
Dew Point 21 °F
Humidity 86%
Rainfall 0.00 in
Snow Depth Not available.
UV 0 out of 12
Pollen .40 out of 12
Air Quality Not available.
Flu Activity Not available.
METAR KTEX 251535Z AUTO 16011G14KT 5SM -SN SCT035 BKN042 OVC090 M03/M07 A2954 RMK AO2 T10261068

More Conditions Fewer Conditions

10-Day Weather Forecast

Almanac

Astronomy

Dec. 25, 2014 Rise Set
Actual Time
Civil Twilight
Nautical Twilight
Astronomical Twilight
Moon
Length of Visible Light
Length of Day
Tomorrow will be .
, % of the Moon is Illuminated

Today's Extremes

State Highs State Lows

Community

WunderPhotos

Upload Photos

1,780,315 photos uploaded!

WunderBlogs® & News

Nearby

Air Quality

  Air Quality AQ Index Pollutant
Not available.

Snow Depth

Station Depth Elevation

Earthquake Activity

City Distance Mag. Time & Date
Minimum magnitude displayed is 2.5.

Coastal Water Temperatures

Place Temperature

Nearby Weather Stations